sensor_id;sensor_type;location;lat;lon;timestamp;temperature;humidity
48988;DHT22;34799;51.440;-2.534;2023-05-07T00:00:10;13.30;99.90
48988;DHT22;34799;51.440;-2.534;2023-05-07T00:02:37;13.30;99.90
48988;DHT22;34799;51.440;-2.534;2023-05-07T00:05:05;13.80;99.90
48988;DHT22;34799;51.440;-2.534;2023-05-07T00:07:33;13.30;99.90
48988;DHT22;34799;51.440;-2.534;2023-05-07T00:10:00;13.30;99.90
48988;DHT22;34799;51.440;-2.534;2023-05-07T00:12:29;13.30;99.90
48988;DHT22;34799;51.440;-2.534;2023-05-07T00:15:02;13.20;99.90
48988;DHT22;34799;51.440;-2.534;2023-05-07T00:17:32;13.10;99.90
48988;DHT22;34799;51.440;-2.534;2023-05-07T00:19:59;13.00;99.90
48988;DHT22;34799;51.440;-2.534;2023-05-07T00:22:26;12.90;99.90
48988;DHT22;34799;51.440;-2.534;2023-05-07T00:24:54;12.90;99.90
48988;DHT22;34799;51.440;-2.534;2023-05-07T00:27:22;12.90;99.90
48988;DHT22;34799;51.440;-2.534;2023-05-07T00:29:51;12.90;99.90
48988;DHT22;34799;51.440;-2.534;2023-05-07T00:32:18;12.80;99.90
48988;DHT22;34799;51.440;-2.534;2023-05-07T00:34:46;12.80;99.90
48988;DHT22;34799;51.440;-2.534;2023-05-07T00:37:13;13.30;99.90
48988;DHT22;34799;51.440;-2.534;2023-05-07T00:39:40;12.80;99.90
48988;DHT22;34799;51.440;-2.534;2023-05-07T00:42:07;12.80;99.90
48988;DHT22;34799;51.440;-2.534;2023-05-07T00:44:35;12.80;99.90
48988;DHT22;34799;51.440;-2.534;2023-05-07T00:47:04;12.80;99.90
48988;DHT22;34799;51.440;-2.534;2023-05-07T00:49:38;12.80;99.90
48988;DHT22;34799;51.440;-2.534;2023-05-07T00:52:10;12.90;99.90
48988;DHT22;34799;51.440;-2.534;2023-05-07T00:54:38;12.90;99.90
48988;DHT22;34799;51.440;-2.534;2023-05-07T00:57:09;12.90;99.90
48988;DHT22;34799;51.440;-2.534;2023-05-07T00:59:37;12.90;99.90
48988;DHT22;34799;51.440;-2.534;2023-05-07T01:02:04;12.90;99.90
48988;DHT22;34799;51.440;-2.534;2023-05-07T01:04:31;13.40;99.90
48988;DHT22;34799;51.440;-2.534;2023-05-07T01:06:59;12.90;99.90
48988;DHT22;34799;51.440;-2.534;2023-05-07T01:09:29;12.80;99.90
48988;DHT22;34799;51.440;-2.534;2023-05-07T01:11:57;12.80;99.90
48988;DHT22;34799;51.440;-2.534;2023-05-07T01:14:25;12.80;99.90
48988;DHT22;34799;51.440;-2.534;2023-05-07T01:16:53;12.90;99.90
48988;DHT22;34799;51.440;-2.534;2023-05-07T01:19:23;12.70;99.90
48988;DHT22;34799;51.440;-2.534;2023-05-07T01:21:51;12.80;99.90
48988;DHT22;34799;51.440;-2.534;2023-05-07T01:24:20;12.80;99.90
48988;DHT22;34799;51.440;-2.534;2023-05-07T01:26:47;12.90;99.90
48988;DHT22;34799;51.440;-2.534;2023-05-07T01:29:17;13.00;99.90
48988;DHT22;34799;51.440;-2.534;2023-05-07T01:31:46;12.70;99.90
48988;DHT22;34799;51.440;-2.534;2023-05-07T01:34:15;12.70;99.90
48988;DHT22;34799;51.440;-2.534;2023-05-07T01:36:46;12.50;99.90
48988;DHT22;34799;51.440;-2.534;2023-05-07T01:39:13;12.50;99.90
48988;DHT22;34799;51.440;-2.534;2023-05-07T01:41:43;12.70;99.90
48988;DHT22;34799;51.440;-2.534;2023-05-07T01:44:13;12.40;99.90
48988;DHT22;34799;51.440;-2.534;2023-05-07T01:46:41;12.30;99.90
48988;DHT22;34799;51.440;-2.534;2023-05-07T01:49:08;12.30;99.90
48988;DHT22;34799;51.440;-2.534;2023-05-07T01:51:36;12.40;99.90
48988;DHT22;34799;51.440;-2.534;2023-05-07T01:54:03;12.20;99.90
48988;DHT22;34799;51.440;-2.534;2023-05-07T01:56:31;12.30;99.90
48988;DHT22;34799;51.440;-2.534;2023-05-07T01:59:00;12.30;99.90
48988;DHT22;34799;51.440;-2.534;2023-05-07T02:01:28;12.30;99.90
48988;DHT22;34799;51.440;-2.534;2023-05-07T02:03:55;12.30;99.90
48988;DHT22;34799;51.440;-2.534;2023-05-07T02:06:25;12.70;99.90
48988;DHT22;34799;51.440;-2.534;2023-05-07T02:08:57;12.20;99.90
48988;DHT22;34799;51.440;-2.534;2023-05-07T02:11:24;12.20;99.90
48988;DHT22;34799;51.440;-2.534;2023-05-07T02:13:51;12.10;99.90
48988;DHT22;34799;51.440;-2.534;2023-05-07T02:16:19;12.10;99.90
48988;DHT22;34799;51.440;-2.534;2023-05-07T02:21:18;12.00;99.90
48988;DHT22;34799;51.440;-2.534;2023-05-07T02:23:54;12.10;99.90
48988;DHT22;34799;51.440;-2.534;2023-05-07T02:26:28;13.10;99.90
48988;DHT22;34799;51.440;-2.534;2023-05-07T02:28:57;12.30;99.90
48988;DHT22;34799;51.440;-2.534;2023-05-07T02:31:32;12.30;99.90
48988;DHT22;34799;51.440;-2.534;2023-05-07T02:34:03;11.90;99.90
48988;DHT22;34799;51.440;-2.534;2023-05-07T02:36:35;12.00;99.90
48988;DHT22;34799;51.440;-2.534;2023-05-07T02:39:10;12.10;99.90
48988;DHT22;34799;51.440;-2.534;2023-05-07T02:41:43;10.40;99.90
48988;DHT22;34799;51.440;-2.534;2023-05-07T02:44:16;12.00;99.90
48988;DHT22;34799;51.440;-2.534;2023-05-07T02:46:47;11.50;99.90
48988;DHT22;34799;51.440;-2.534;2023-05-07T02:49:17;12.20;99.90
48988;DHT22;34799;51.440;-2.534;2023-05-07T02:52:10;12.30;99.90
48988;DHT22;34799;51.440;-2.534;2023-05-07T02:54:39;12.40;99.90
48988;DHT22;34799;51.440;-2.534;2023-05-07T02:57:11;12.30;99.90
48988;DHT22;34799;51.440;-2.534;2023-05-07T02:59:40;13.90;99.90
48988;DHT22;34799;51.440;-2.534;2023-05-07T03:02:15;12.30;99.90
48988;DHT22;34799;51.440;-2.534;2023-05-07T03:07:13;12.50;99.90
48988;DHT22;34799;51.440;-2.534;2023-05-07T03:09:44;12.80;99.90
48988;DHT22;34799;51.440;-2.534;2023-05-07T03:12:23;12.90;99.90
48988;DHT22;34799;51.440;-2.534;2023-05-07T03:14:51;12.90;99.90
48988;DHT22;34799;51.440;-2.534;2023-05-07T03:17:25;12.40;99.90
48988;DHT22;34799;51.440;-2.534;2023-05-07T03:19:56;12.60;99.90
48988;DHT22;34799;51.440;-2.534;2023-05-07T03:22:29;12.50;99.90
48988;DHT22;34799;51.440;-2.534;2023-05-07T03:25:06;12.60;99.90
48988;DHT22;34799;51.440;-2.534;2023-05-07T03:27:46;12.50;99.90
48988;DHT22;34799;51.440;-2.534;2023-05-07T03:30:25;12.60;99.90
48988;DHT22;34799;51.440;-2.534;2023-05-07T03:32:57;13.00;99.90
48988;DHT22;34799;51.440;-2.534;2023-05-07T03:35:27;12.80;99.90
48988;DHT22;34799;51.440;-2.534;2023-05-07T03:37:55;13.00;99.90
48988;DHT22;34799;51.440;-2.534;2023-05-07T03:40:34;12.60;99.90
48988;DHT22;34799;51.440;-2.534;2023-05-07T03:43:12;12.80;99.90
48988;DHT22;34799;51.440;-2.534;2023-05-07T03:45:51;12.80;99.90
48988;DHT22;34799;51.440;-2.534;2023-05-07T03:48:26;12.70;99.90
48988;DHT22;34799;51.440;-2.534;2023-05-07T03:50:59;12.60;99.90
48988;DHT22;34799;51.440;-2.534;2023-05-07T03:56:15;12.60;99.90
48988;DHT22;34799;51.440;-2.534;2023-05-07T03:58:49;12.60;99.90
48988;DHT22;34799;51.440;-2.534;2023-05-07T04:01:23;12.30;99.90
48988;DHT22;34799;51.440;-2.534;2023-05-07T04:03:53;12.70;99.90
48988;DHT22;34799;51.440;-2.534;2023-05-07T04:06:21;12.60;99.90
48988;DHT22;34799;51.440;-2.534;2023-05-07T04:08:58;12.50;99.90
48988;DHT22;34799;51.440;-2.534;2023-05-07T04:11:27;12.70;99.90
48988;DHT22;34799;51.440;-2.534;2023-05-07T04:14:08;12.70;99.90
48988;DHT22;34799;51.440;-2.534;2023-05-07T04:16:42;14.80;99.90
48988;DHT22;34799;51.440;-2.534;2023-05-07T04:19:34;12.70;99.90
48988;DHT22;34799;51.440;-2.534;2023-05-07T04:22:04;12.60;99.90
48988;DHT22;34799;51.440;-2.534;2023-05-07T04:24:45;13.10;99.90
48988;DHT22;34799;51.440;-2.534;2023-05-07T04:27:16;13.30;99.90
48988;DHT22;34799;51.440;-2.534;2023-05-07T04:29:44;13.20;99.90
48988;DHT22;34799;51.440;-2.534;2023-05-07T04:32:17;12.80;99.90
48988;DHT22;34799;51.440;-2.534;2023-05-07T04:34:51;13.00;99.90
48988;DHT22;34799;51.440;-2.534;2023-05-07T04:37:31;13.30;99.90
48988;DHT22;34799;51.440;-2.534;2023-05-07T04:40:06;12.90;99.90
48988;DHT22;34799;51.440;-2.534;2023-05-07T04:42:44;13.20;99.90
48988;DHT22;34799;51.440;-2.534;2023-05-07T04:45:12;13.20;99.90
48988;DHT22;34799;51.440;-2.534;2023-05-07T04:47:45;12.80;99.90
48988;DHT22;34799;51.440;-2.534;2023-05-07T04:50:18;13.00;99.90
48988;DHT22;34799;51.440;-2.534;2023-05-07T04:52:51;13.10;99.90
48988;DHT22;34799;51.440;-2.534;2023-05-07T04:55:26;13.70;99.90
48988;DHT22;34799;51.440;-2.534;2023-05-07T04:57:55;12.70;99.90
48988;DHT22;34799;51.440;-2.534;2023-05-07T05:00:30;12.90;99.90
48988;DHT22;34799;51.440;-2.534;2023-05-07T05:03:08;12.80;99.90
48988;DHT22;34799;51.440;-2.534;2023-05-07T05:05:39;16.00;99.90
48988;DHT22;34799;51.440;-2.534;2023-05-07T05:08:18;12.90;99.90
48988;DHT22;34799;51.440;-2.534;2023-05-07T05:10:53;12.70;99.90
48988;DHT22;34799;51.440;-2.534;2023-05-07T05:13:45;12.80;99.90
48988;DHT22;34799;51.440;-2.534;2023-05-07T05:16:37;12.70;99.90
48988;DHT22;34799;51.440;-2.534;2023-05-07T05:19:23;9.50;99.90
48988;DHT22;34799;51.440;-2.534;2023-05-07T05:21:57;12.20;99.90
48988;DHT22;34799;51.440;-2.534;2023-05-07T05:24:25;12.20;99.90
48988;DHT22;34799;51.440;-2.534;2023-05-07T05:26:56;10.30;99.90
48988;DHT22;34799;51.440;-2.534;2023-05-07T05:29:28;12.50;99.90
48988;DHT22;34799;51.440;-2.534;2023-05-07T05:31:58;12.50;99.90
48988;DHT22;34799;51.440;-2.534;2023-05-07T05:34:34;12.20;99.90
48988;DHT22;34799;51.440;-2.534;2023-05-07T05:37:09;12.20;99.90
48988;DHT22;34799;51.440;-2.534;2023-05-07T05:39:40;12.90;99.90
48988;DHT22;34799;51.440;-2.534;2023-05-07T05:42:16;12.20;99.90
48988;DHT22;34799;51.440;-2.534;2023-05-07T05:44:54;12.00;99.90
48988;DHT22;34799;51.440;-2.534;2023-05-07T05:47:23;12.00;99.90
48988;DHT22;34799;51.440;-2.534;2023-05-07T05:49:56;9.80;99.90
48988;DHT22;34799;51.440;-2.534;2023-05-07T05:52:34;12.20;99.90
48988;DHT22;34799;51.440;-2.534;2023-05-07T05:55:04;12.10;99.90
48988;DHT22;34799;51.440;-2.534;2023-05-07T05:57:35;12.10;99.90
48988;DHT22;34799;51.440;-2.534;2023-05-07T06:00:09;11.40;99.90
48988;DHT22;34799;51.440;-2.534;2023-05-07T06:02:47;12.00;99.90
48988;DHT22;34799;51.440;-2.534;2023-05-07T06:05:21;12.60;99.90
48988;DHT22;34799;51.440;-2.534;2023-05-07T06:07:54;9.60;99.90
48988;DHT22;34799;51.440;-2.534;2023-05-07T06:10:26;12.30;99.90
48988;DHT22;34799;51.440;-2.534;2023-05-07T06:13:02;11.70;99.90
48988;DHT22;34799;51.440;-2.534;2023-05-07T06:15:34;12.30;99.90
48988;DHT22;34799;51.440;-2.534;2023-05-07T06:18:10;12.40;99.90
48988;DHT22;34799;51.440;-2.534;2023-05-07T06:20:38;12.00;99.90
48988;DHT22;34799;51.440;-2.534;2023-05-07T06:23:14;12.30;99.90
48988;DHT22;34799;51.440;-2.534;2023-05-07T06:25:51;12.10;99.90
48988;DHT22;34799;51.440;-2.534;2023-05-07T06:28:24;12.10;99.90
48988;DHT22;34799;51.440;-2.534;2023-05-07T06:31:28;12.30;99.90
48988;DHT22;34799;51.440;-2.534;2023-05-07T06:34:20;12.40;99.90
48988;DHT22;34799;51.440;-2.534;2023-05-07T06:36:56;12.40;99.90
48988;DHT22;34799;51.440;-2.534;2023-05-07T06:39:42;12.70;99.90
48988;DHT22;34799;51.440;-2.534;2023-05-07T06:42:14;12.40;99.90
48988;DHT22;34799;51.440;-2.534;2023-05-07T06:44:57;12.60;99.90
48988;DHT22;34799;51.440;-2.534;2023-05-07T06:47:26;12.80;99.90
48988;DHT22;34799;51.440;-2.534;2023-05-07T06:50:00;12.70;99.90
48988;DHT22;34799;51.440;-2.534;2023-05-07T06:52:33;12.40;99.90
48988;DHT22;34799;51.440;-2.534;2023-05-07T06:55:09;12.70;99.90
48988;DHT22;34799;51.440;-2.534;2023-05-07T06:58:11;12.90;99.90
48988;DHT22;34799;51.440;-2.534;2023-05-07T07:00:40;13.10;99.90
48988;DHT22;34799;51.440;-2.534;2023-05-07T07:03:16;13.00;99.90
48988;DHT22;34799;51.440;-2.534;2023-05-07T07:09:37;13.00;99.90
48988;DHT22;34799;51.440;-2.534;2023-05-07T07:15:03;13.00;99.90
48988;DHT22;34799;51.440;-2.534;2023-05-07T07:17:41;13.10;99.90
48988;DHT22;34799;51.440;-2.534;2023-05-07T07:20:10;13.30;99.90
48988;DHT22;34799;51.440;-2.534;2023-05-07T07:22:49;13.80;99.90
48988;DHT22;34799;51.440;-2.534;2023-05-07T07:25:21;13.30;99.90
48988;DHT22;34799;51.440;-2.534;2023-05-07T07:27:57;13.70;99.90
48988;DHT22;34799;51.440;-2.534;2023-05-07T07:30:27;13.60;99.90
48988;DHT22;34799;51.440;-2.534;2023-05-07T07:32:58;13.50;99.90
48988;DHT22;34799;51.440;-2.534;2023-05-07T07:35:35;13.70;99.90
48988;DHT22;34799;51.440;-2.534;2023-05-07T07:38:08;13.50;99.90
48988;DHT22;34799;51.440;-2.534;2023-05-07T07:40:42;14.10;99.90
48988;DHT22;34799;51.440;-2.534;2023-05-07T07:43:59;13.20;99.90
48988;DHT22;34799;51.440;-2.534;2023-05-07T07:46:47;14.30;99.90
48988;DHT22;34799;51.440;-2.534;2023-05-07T07:50:26;14.30;99.90
48988;DHT22;34799;51.440;-2.534;2023-05-07T07:53:20;14.30;99.90
48988;DHT22;34799;51.440;-2.534;2023-05-07T07:55:53;11.80;99.90
48988;DHT22;34799;51.440;-2.534;2023-05-07T07:58:33;14.40;99.90
48988;DHT22;34799;51.440;-2.534;2023-05-07T08:03:48;14.20;99.90
48988;DHT22;34799;51.440;-2.534;2023-05-07T08:06:26;14.30;99.90
48988;DHT22;34799;51.440;-2.534;2023-05-07T08:08:56;14.70;99.90
48988;DHT22;34799;51.440;-2.534;2023-05-07T08:11:30;11.60;99.90
48988;DHT22;34799;51.440;-2.534;2023-05-07T08:13:59;16.00;99.90
48988;DHT22;34799;51.440;-2.534;2023-05-07T08:16:30;14.80;99.90
48988;DHT22;34799;51.440;-2.534;2023-05-07T08:19:07;14.60;99.90
48988;DHT22;34799;51.440;-2.534;2023-05-07T08:21:41;14.90;99.90
48988;DHT22;34799;51.440;-2.534;2023-05-07T08:24:23;14.90;99.90
48988;DHT22;34799;51.440;-2.534;2023-05-07T08:27:00;14.90;99.90
48988;DHT22;34799;51.440;-2.534;2023-05-07T08:29:41;15.00;99.90
48988;DHT22;34799;51.440;-2.534;2023-05-07T08:32:21;14.90;99.90
48988;DHT22;34799;51.440;-2.534;2023-05-07T08:35:14;15.00;99.90
48988;DHT22;34799;51.440;-2.534;2023-05-07T08:37:51;14.80;99.90
48988;DHT22;34799;51.440;-2.534;2023-05-07T08:40:48;15.20;99.90
48988;DHT22;34799;51.440;-2.534;2023-05-07T08:43:25;15.20;99.90
48988;DHT22;34799;51.440;-2.534;2023-05-07T08:46:08;14.90;99.90
48988;DHT22;34799;51.440;-2.534;2023-05-07T08:48:43;14.90;99.90
48988;DHT22;34799;51.440;-2.534;2023-05-07T08:51:53;15.00;99.90
48988;DHT22;34799;51.440;-2.534;2023-05-07T08:54:29;14.10;99.90
48988;DHT22;34799;51.440;-2.534;2023-05-07T08:57:01;15.20;99.90
48988;DHT22;34799;51.440;-2.534;2023-05-07T08:59:56;14.90;99.90
48988;DHT22;34799;51.440;-2.534;2023-05-07T09:02:36;15.10;99.90
48988;DHT22;34799;51.440;-2.534;2023-05-07T09:05:10;15.20;99.90
48988;DHT22;34799;51.440;-2.534;2023-05-07T09:08:08;14.60;99.90
48988;DHT22;34799;51.440;-2.534;2023-05-07T09:11:05;15.30;99.90
48988;DHT22;34799;51.440;-2.534;2023-05-07T09:14:00;15.40;99.90
48988;DHT22;34799;51.440;-2.534;2023-05-07T09:16:43;15.60;99.90
48988;DHT22;34799;51.440;-2.534;2023-05-07T09:19:46;15.30;99.90
48988;DHT22;34799;51.440;-2.534;2023-05-07T09:26:01;15.80;99.90
48988;DHT22;34799;51.440;-2.534;2023-05-07T09:28:33;15.90;99.90
48988;DHT22;34799;51.440;-2.534;2023-05-07T09:31:15;17.60;99.90
48988;DHT22;34799;51.440;-2.534;2023-05-07T09:33:47;16.90;99.90
48988;DHT22;34799;51.440;-2.534;2023-05-07T09:37:06;16.10;99.90
48988;DHT22;34799;51.440;-2.534;2023-05-07T09:39:49;15.90;99.90
48988;DHT22;34799;51.440;-2.534;2023-05-07T09:42:26;16.00;99.90
48988;DHT22;34799;51.440;-2.534;2023-05-07T09:45:29;16.60;99.90
48988;DHT22;34799;51.440;-2.534;2023-05-07T09:48:04;15.50;99.90
48988;DHT22;34799;51.440;-2.534;2023-05-07T09:50:51;16.10;99.90
48988;DHT22;34799;51.440;-2.534;2023-05-07T09:53:43;16.00;99.90
48988;DHT22;34799;51.440;-2.534;2023-05-07T09:56:27;16.10;99.90
48988;DHT22;34799;51.440;-2.534;2023-05-07T09:59:02;16.10;99.90
48988;DHT22;34799;51.440;-2.534;2023-05-07T10:01:33;15.90;99.90
48988;DHT22;34799;51.440;-2.534;2023-05-07T10:04:10;16.10;99.90
48988;DHT22;34799;51.440;-2.534;2023-05-07T10:07:04;16.00;99.90
48988;DHT22;34799;51.440;-2.534;2023-05-07T10:09:40;16.30;99.90
48988;DHT22;34799;51.440;-2.534;2023-05-07T10:12:28;16.00;99.90
48988;DHT22;34799;51.440;-2.534;2023-05-07T10:15:02;15.70;99.90
48988;DHT22;34799;51.440;-2.534;2023-05-07T10:18:05;16.50;99.90
48988;DHT22;34799;51.440;-2.534;2023-05-07T10:20:52;16.20;99.90
48988;DHT22;34799;51.440;-2.534;2023-05-07T10:23:36;16.20;99.90
48988;DHT22;34799;51.440;-2.534;2023-05-07T10:36:47;18.60;99.90
48988;DHT22;34799;51.440;-2.534;2023-05-07T10:39:16;16.60;99.90
48988;DHT22;34799;51.440;-2.534;2023-05-07T10:41:44;16.80;99.90
48988;DHT22;34799;51.440;-2.534;2023-05-07T10:44:11;17.00;99.90
48988;DHT22;34799;51.440;-2.534;2023-05-07T10:46:38;17.30;99.90
48988;DHT22;34799;51.440;-2.534;2023-05-07T10:49:14;17.30;99.90
48988;DHT22;34799;51.440;-2.534;2023-05-07T10:52:22;17.20;99.90
48988;DHT22;34799;51.440;-2.534;2023-05-07T11:01:04;17.10;99.90
48988;DHT22;34799;51.440;-2.534;2023-05-07T11:04:14;17.10;99.90
48988;DHT22;34799;51.440;-2.534;2023-05-07T11:15:38;16.90;99.90
48988;DHT22;34799;51.440;-2.534;2023-05-07T11:18:17;16.80;99.90
48988;DHT22;34799;51.440;-2.534;2023-05-07T11:20:46;16.90;99.90
48988;DHT22;34799;51.440;-2.534;2023-05-07T11:26:11;17.00;99.90
48988;DHT22;34799;51.440;-2.534;2023-05-07T11:28:41;17.30;99.90
48988;DHT22;34799;51.440;-2.534;2023-05-07T11:31:10;17.40;99.90
48988;DHT22;34799;51.440;-2.534;2023-05-07T11:33:40;17.70;99.90
48988;DHT22;34799;51.440;-2.534;2023-05-07T11:36:12;17.70;99.90
48988;DHT22;34799;51.440;-2.534;2023-05-07T11:38:45;17.60;99.90
48988;DHT22;34799;51.440;-2.534;2023-05-07T11:41:12;17.40;99.90
48988;DHT22;34799;51.440;-2.534;2023-05-07T11:43:54;17.30;99.90
48988;DHT22;34799;51.440;-2.534;2023-05-07T11:46:22;17.30;99.90
48988;DHT22;34799;51.440;-2.534;2023-05-07T11:48:50;17.40;99.90
48988;DHT22;34799;51.440;-2.534;2023-05-07T11:51:21;17.50;99.90
48988;DHT22;34799;51.440;-2.534;2023-05-07T11:53:49;17.50;99.90
48988;DHT22;34799;51.440;-2.534;2023-05-07T11:56:18;17.60;99.90
48988;DHT22;34799;51.440;-2.534;2023-05-07T11:58:47;17.70;99.90
48988;DHT22;34799;51.440;-2.534;2023-05-07T12:01:15;17.80;99.90
48988;DHT22;34799;51.440;-2.534;2023-05-07T12:03:44;18.00;99.90
48988;DHT22;34799;51.440;-2.534;2023-05-07T12:06:14;18.20;99.90
48988;DHT22;34799;51.440;-2.534;2023-05-07T12:08:43;18.50;99.90
48988;DHT22;34799;51.440;-2.534;2023-05-07T12:11:22;18.60;99.90
48988;DHT22;34799;51.440;-2.534;2023-05-07T12:13:49;18.90;99.90
48988;DHT22;34799;51.440;-2.534;2023-05-07T12:16:19;19.00;99.90
48988;DHT22;34799;51.440;-2.534;2023-05-07T12:18:46;19.10;99.90
48988;DHT22;34799;51.440;-2.534;2023-05-07T12:21:13;19.00;99.90
48988;DHT22;34799;51.440;-2.534;2023-05-07T12:23:41;19.00;99.90
48988;DHT22;34799;51.440;-2.534;2023-05-07T12:26:08;18.70;99.90
48988;DHT22;34799;51.440;-2.534;2023-05-07T12:28:39;18.40;99.90
48988;DHT22;34799;51.440;-2.534;2023-05-07T12:31:07;18.30;99.90
48988;DHT22;34799;51.440;-2.534;2023-05-07T12:33:35;18.30;99.90
48988;DHT22;34799;51.440;-2.534;2023-05-07T12:36:06;18.30;99.90
48988;DHT22;34799;51.440;-2.534;2023-05-07T12:38:38;18.30;99.90
48988;DHT22;34799;51.440;-2.534;2023-05-07T12:41:10;18.40;99.90
48988;DHT22;34799;51.440;-2.534;2023-05-07T12:43:38;18.60;99.90
48988;DHT22;34799;51.440;-2.534;2023-05-07T12:46:07;18.80;99.90
48988;DHT22;34799;51.440;-2.534;2023-05-07T12:48:38;18.80;99.90
48988;DHT22;34799;51.440;-2.534;2023-05-07T12:51:05;18.80;99.90
48988;DHT22;34799;51.440;-2.534;2023-05-07T12:53:33;18.90;99.90
48988;DHT22;34799;51.440;-2.534;2023-05-07T12:56:06;18.90;99.90
48988;DHT22;34799;51.440;-2.534;2023-05-07T12:58:34;18.80;99.90
48988;DHT22;34799;51.440;-2.534;2023-05-07T13:01:06;18.90;99.90
48988;DHT22;34799;51.440;-2.534;2023-05-07T13:03:35;19.10;99.90
48988;DHT22;34799;51.440;-2.534;2023-05-07T13:06:08;19.30;99.90
48988;DHT22;34799;51.440;-2.534;2023-05-07T13:08:43;19.40;99.90
48988;DHT22;34799;51.440;-2.534;2023-05-07T13:11:11;19.30;99.90
48988;DHT22;34799;51.440;-2.534;2023-05-07T13:13:39;18.90;99.90
48988;DHT22;34799;51.440;-2.534;2023-05-07T13:16:08;18.60;99.90
48988;DHT22;34799;51.440;-2.534;2023-05-07T13:18:39;18.30;99.90
48988;DHT22;34799;51.440;-2.534;2023-05-07T13:21:06;18.10;99.90
48988;DHT22;34799;51.440;-2.534;2023-05-07T13:23:33;18.00;99.90
48988;DHT22;34799;51.440;-2.534;2023-05-07T13:26:01;18.00;99.90
48988;DHT22;34799;51.440;-2.534;2023-05-07T13:28:31;18.30;99.90
48988;DHT22;34799;51.440;-2.534;2023-05-07T13:30:58;18.70;99.90
48988;DHT22;34799;51.440;-2.534;2023-05-07T13:33:25;19.00;99.90
48988;DHT22;34799;51.440;-2.534;2023-05-07T13:35:52;19.10;99.90
48988;DHT22;34799;51.440;-2.534;2023-05-07T13:38:19;19.30;99.90
48988;DHT22;34799;51.440;-2.534;2023-05-07T13:40:47;19.40;99.90
48988;DHT22;34799;51.440;-2.534;2023-05-07T13:43:14;19.40;99.90
48988;DHT22;34799;51.440;-2.534;2023-05-07T13:45:41;19.40;99.90
48988;DHT22;34799;51.440;-2.534;2023-05-07T13:48:08;19.50;99.90
48988;DHT22;34799;51.440;-2.534;2023-05-07T13:50:37;19.70;99.90
48988;DHT22;34799;51.440;-2.534;2023-05-07T13:53:04;19.90;99.90
48988;DHT22;34799;51.440;-2.534;2023-05-07T13:55:31;20.00;99.90
48988;DHT22;34799;51.440;-2.534;2023-05-07T13:58:00;19.90;99.90
48988;DHT22;34799;51.440;-2.534;2023-05-07T14:00:28;19.90;99.90
48988;DHT22;34799;51.440;-2.534;2023-05-07T14:02:56;19.90;99.90
48988;DHT22;34799;51.440;-2.534;2023-05-07T14:05:24;20.00;99.90
48988;DHT22;34799;51.440;-2.534;2023-05-07T14:07:52;20.20;99.90
48988;DHT22;34799;51.440;-2.534;2023-05-07T14:10:19;20.30;99.90
48988;DHT22;34799;51.440;-2.534;2023-05-07T14:12:47;20.30;99.90
48988;DHT22;34799;51.440;-2.534;2023-05-07T14:15:15;20.50;99.90
48988;DHT22;34799;51.440;-2.534;2023-05-07T14:17:43;20.70;99.90
48988;DHT22;34799;51.440;-2.534;2023-05-07T14:20:12;20.70;99.90
48988;DHT22;34799;51.440;-2.534;2023-05-07T14:22:39;20.50;99.90
48988;DHT22;34799;51.440;-2.534;2023-05-07T14:25:07;20.10;99.90
48988;DHT22;34799;51.440;-2.534;2023-05-07T14:27:36;19.80;99.90
48988;DHT22;34799;51.440;-2.534;2023-05-07T14:30:05;19.50;99.90
48988;DHT22;34799;51.440;-2.534;2023-05-07T14:32:33;19.40;99.90
48988;DHT22;34799;51.440;-2.534;2023-05-07T14:35:00;19.30;99.90
48988;DHT22;34799;51.440;-2.534;2023-05-07T14:37:27;19.40;99.90
48988;DHT22;34799;51.440;-2.534;2023-05-07T14:39:54;19.40;99.90
48988;DHT22;34799;51.440;-2.534;2023-05-07T14:42:22;19.50;99.90
48988;DHT22;34799;51.440;-2.534;2023-05-07T14:44:48;19.60;99.90
48988;DHT22;34799;51.440;-2.534;2023-05-07T14:47:16;19.50;99.90
48988;DHT22;34799;51.440;-2.534;2023-05-07T14:49:45;19.40;99.90
48988;DHT22;34799;51.440;-2.534;2023-05-07T14:52:12;19.30;99.90
48988;DHT22;34799;51.440;-2.534;2023-05-07T14:54:39;19.40;99.90
48988;DHT22;34799;51.440;-2.534;2023-05-07T14:57:08;19.40;99.90
48988;DHT22;34799;51.440;-2.534;2023-05-07T14:59:37;19.30;99.90
48988;DHT22;34799;51.440;-2.534;2023-05-07T15:02:06;19.30;99.90
48988;DHT22;34799;51.440;-2.534;2023-05-07T15:04:36;19.30;99.90
48988;DHT22;34799;51.440;-2.534;2023-05-07T15:07:03;19.20;99.90
48988;DHT22;34799;51.440;-2.534;2023-05-07T15:09:30;19.20;99.90
48988;DHT22;34799;51.440;-2.534;2023-05-07T15:11:57;19.20;99.90
48988;DHT22;34799;51.440;-2.534;2023-05-07T15:14:25;19.00;99.90
48988;DHT22;34799;51.440;-2.534;2023-05-07T15:16:52;19.00;99.90
48988;DHT22;34799;51.440;-2.534;2023-05-07T15:19:19;19.10;99.90
48988;DHT22;34799;51.440;-2.534;2023-05-07T15:21:48;19.00;99.90
48988;DHT22;34799;51.440;-2.534;2023-05-07T15:24:15;18.80;99.90
48988;DHT22;34799;51.440;-2.534;2023-05-07T15:26:42;18.80;99.90
48988;DHT22;34799;51.440;-2.534;2023-05-07T15:29:09;18.80;99.90
48988;DHT22;34799;51.440;-2.534;2023-05-07T15:31:39;18.80;99.90
48988;DHT22;34799;51.440;-2.534;2023-05-07T15:34:06;18.70;99.90
48988;DHT22;34799;51.440;-2.534;2023-05-07T15:36:33;18.80;99.90
48988;DHT22;34799;51.440;-2.534;2023-05-07T15:39:00;19.10;99.90
48988;DHT22;34799;51.440;-2.534;2023-05-07T15:41:29;19.40;99.90
48988;DHT22;34799;51.440;-2.534;2023-05-07T15:43:56;19.60;99.90
48988;DHT22;34799;51.440;-2.534;2023-05-07T15:46:26;19.90;99.90
48988;DHT22;34799;51.440;-2.534;2023-05-07T15:48:53;20.20;99.90
48988;DHT22;34799;51.440;-2.534;2023-05-07T15:51:20;20.40;99.90
48988;DHT22;34799;51.440;-2.534;2023-05-07T15:53:48;20.60;99.90
48988;DHT22;34799;51.440;-2.534;2023-05-07T15:56:15;20.90;99.90
48988;DHT22;34799;51.440;-2.534;2023-05-07T15:58:42;20.90;99.90
48988;DHT22;34799;51.440;-2.534;2023-05-07T16:01:09;21.00;99.90
48988;DHT22;34799;51.440;-2.534;2023-05-07T16:03:38;21.00;99.90
48988;DHT22;34799;51.440;-2.534;2023-05-07T16:06:06;21.00;99.90
48988;DHT22;34799;51.440;-2.534;2023-05-07T16:08:34;21.10;99.90
48988;DHT22;34799;51.440;-2.534;2023-05-07T16:11:01;21.30;99.90
48988;DHT22;34799;51.440;-2.534;2023-05-07T16:13:28;21.40;99.90
48988;DHT22;34799;51.440;-2.534;2023-05-07T16:15:55;21.60;99.90
48988;DHT22;34799;51.440;-2.534;2023-05-07T16:18:26;21.80;99.90
48988;DHT22;34799;51.440;-2.534;2023-05-07T16:20:53;22.00;99.90
48988;DHT22;34799;51.440;-2.534;2023-05-07T16:23:20;22.20;99.90
48988;DHT22;34799;51.440;-2.534;2023-05-07T16:25:48;22.40;99.90
48988;DHT22;34799;51.440;-2.534;2023-05-07T16:28:15;22.30;99.90
48988;DHT22;34799;51.440;-2.534;2023-05-07T16:30:42;22.20;99.90
48988;DHT22;34799;51.440;-2.534;2023-05-07T16:33:09;22.30;99.90
48988;DHT22;34799;51.440;-2.534;2023-05-07T16:35:38;22.50;99.90
48988;DHT22;34799;51.440;-2.534;2023-05-07T16:38:06;22.50;99.90
48988;DHT22;34799;51.440;-2.534;2023-05-07T16:40:40;22.60;99.90